Time;durP1;ratioP1;P1;durP2;ratioP2;P2;SDS_P1;SDS_P2;PMS_P1;PMS_P2;Temp;Humidity;BMP_temperature;BMP_pressure;BME280_temperature;BME280_humidity;BME280_pressure;Samples;Min_cycle;Max_cycle;Signal;HPM_P1;HPM_P2
2022/05/18 00:00:27;;;;;;;;;5.00;5.00;;;;;26.43;100.00;101476.22;4983021;28;63430;-75
2022/05/18 00:02:59;;;;;;;;;5.67;5.00;;;;;26.37;100.00;101489.03;4992634;28;45491;-74
2022/05/18 00:05:25;;;;;;;;;7.33;4.67;;;;;26.33;100.00;101490.13;4989753;28;45675;-73
2022/05/18 00:07:50;;;;;;;;;6.00;6.00;;;;;26.28;100.00;101499.38;4994576;28;45523;-75
2022/05/18 00:10:16;;;;;;;;;4.00;4.00;;;;;26.22;100.00;101494.25;4995863;28;45778;-75
2022/05/18 00:12:44;;;;;;;;;6.33;5.00;;;;;26.17;100.00;101498.97;4990140;28;45542;-75
2022/05/18 00:15:10;;;;;;;;;5.00;5.00;;;;;26.11;100.00;101498.31;4989821;28;45396;-74
2022/05/18 00:17:35;;;;;;;;;10.00;6.00;;;;;26.04;100.00;101495.91;4994104;28;46572;-75
2022/05/18 00:20:01;;;;;;;;;5.00;5.00;;;;;25.98;100.00;101502.47;4991636;28;47419;-74
2022/05/18 00:22:26;;;;;;;;;5.00;5.00;;;;;25.93;100.00;101504.47;4992671;28;57073;-75
2022/05/18 00:24:51;;;;;;;;;7.00;6.00;;;;;25.85;100.00;101503.94;4987501;28;52240;-75
2022/05/18 00:27:17;;;;;;;;;8.00;6.00;;;;;25.75;100.00;101510.69;4988638;28;53864;-74
2022/05/18 00:29:42;;;;;;;;;7.00;7.00;;;;;25.68;100.00;101514.56;4987587;28;62022;-74
2022/05/18 00:32:08;;;;;;;;;7.67;6.00;;;;;25.61;100.00;101525.59;4991688;28;56679;-74
2022/05/18 00:34:33;;;;;;;;;8.00;6.33;;;;;25.54;100.00;101509.69;4991955;28;45456;-75
2022/05/18 00:36:58;;;;;;;;;7.00;6.00;;;;;25.50;100.00;101517.03;4987769;28;45461;-74
2022/05/18 00:39:24;;;;;;;;;6.00;6.00;;;;;25.49;100.00;101515.28;4989808;28;60559;-75
2022/05/18 00:41:49;;;;;;;;;9.67;7.00;;;;;25.46;100.00;101511.81;4994315;28;45279;-75
2022/05/18 00:44:14;;;;;;;;;7.00;5.00;;;;;25.44;100.00;101522.69;4995210;28;45475;-75
2022/05/18 00:46:40;;;;;;;;;6.00;6.00;;;;;25.43;100.00;101531.75;4996142;28;45459;-75
2022/05/18 00:49:07;;;;;;;;;9.67;6.00;;;;;25.42;100.00;101530.00;4994267;28;47193;-74
2022/05/18 00:51:41;;;;;;;;;9.33;7.00;;;;;25.40;100.00;101531.00;4994418;28;45681;-75
2022/05/18 00:54:11;;;;;;;;;5.00;5.00;;;;;25.38;100.00;101535.59;4992567;28;45511;-75
2022/05/18 00:57:10;;;;;;;;;4.67;4.33;;;;;25.36;100.00;101540.19;4992306;28;45492;-74
2022/05/18 00:59:47;;;;;;;;;7.33;5.33;;;;;25.30;100.00;101542.19;4995395;28;46409;-74
2022/05/18 01:02:13;;;;;;;;;7.00;7.00;;;;;25.27;100.00;101544.13;4988431;28;45857;-74
2022/05/18 01:04:40;;;;;;;;;5.00;5.00;;;;;25.24;100.00;101552.34;5019284;28;49571;-75
2022/05/18 01:07:10;;;;;;;;;5.67;5.67;;;;;25.18;100.00;101556.16;4993307;28;45309;-74
2022/05/18 01:09:39;;;;;;;;;7.00;5.00;;;;;25.15;100.00;101552.72;5019781;28;47536;-74
2022/05/18 01:12:06;;;;;;;;;6.00;6.00;;;;;25.11;100.00;101551.94;4993019;28;45305;-75
2022/05/18 01:14:36;;;;;;;;;9.67;7.33;;;;;25.09;100.00;101559.22;4993532;28;45510;-74
2022/05/18 01:17:02;;;;;;;;;6.67;5.00;;;;;25.05;100.00;101561.13;4994530;28;45991;-74
2022/05/18 01:19:46;;;;;;;;;7.00;7.00;;;;;25.03;100.00;101562.09;4992008;28;46373;-75
2022/05/18 01:22:17;;;;;;;;;6.00;6.00;;;;;24.99;100.00;101564.06;4992082;28;45563;-75
2022/05/18 01:25:10;;;;;;;;;6.33;6.00;;;;;24.93;100.00;101566.09;4993382;28;45471;-75
2022/05/18 01:27:36;;;;;;;;;5.00;5.00;;;;;24.86;100.00;101568.13;4988835;28;45526;-75
2022/05/18 01:30:04;;;;;;;;;7.33;6.00;;;;;24.82;100.00;101561.06;4990240;28;46526;-74
2022/05/18 01:32:42;;;;;;;;;6.00;6.00;;;;;24.75;100.00;101560.44;4988363;28;45436;-74
2022/05/18 01:35:12;;;;;;;;;7.00;6.00;;;;;24.73;100.00;101561.44;5016588;28;45487;-74
2022/05/18 01:37:37;;;;;;;;;8.00;6.33;;;;;24.67;100.00;101564.38;4989347;28;45439;-74
2022/05/18 01:40:08;;;;;;;;;7.00;5.00;;;;;24.61;100.00;101570.88;4991817;28;63721;-74
2022/05/18 01:42:49;;;;;;;;;6.00;6.00;;;;;24.55;100.00;101562.97;4995366;28;45606;-75
2022/05/18 01:45:15;;;;;;;;;10.00;6.00;;;;;24.51;100.00;101570.31;4994820;28;45190;-74
2022/05/18 01:47:41;;;;;;;;;4.33;4.33;;;;;24.48;100.00;101566.81;4997350;28;45627;-74
2022/05/18 01:50:10;;;;;;;;;5.33;5.33;;;;;24.43;100.00;101583.19;4991584;28;46669;-75
2022/05/18 01:52:36;;;;;;;;;7.00;6.00;;;;;24.41;100.00;101581.47;4995144;28;45659;-75
2022/05/18 01:55:04;;;;;;;;;7.33;7.00;;;;;24.39;100.00;101576.13;4996028;28;45479;-75
2022/05/18 01:57:29;;;;;;;;;7.00;5.67;;;;;24.35;100.00;101577.19;4994472;28;45527;-74
2022/05/18 01:59:54;;;;;;;;;9.00;7.67;;;;;24.34;100.00;101580.75;4997595;28;47299;-75
2022/05/18 02:02:20;;;;;;;;;8.00;6.67;;;;;24.28;100.00;101595.34;4994786;28;50757;-74
2022/05/18 02:04:45;;;;;;;;;6.00;6.00;;;;;24.25;100.00;101592.75;4995101;28;55674;-74
2022/05/18 02:07:11;;;;;;;;;7.67;6.33;;;;;24.23;100.00;101600.00;4984572;28;47747;-74
2022/05/18 02:09:38;;;;;;;;;5.67;5.67;;;;;24.19;100.00;101610.97;4997513;28;46767;-75
2022/05/18 02:12:06;;;;;;;;;6.67;6.67;;;;;24.13;100.00;101603.97;4990230;28;45563;-74
2022/05/18 02:14:31;;;;;;;;;5.00;5.00;;;;;24.08;100.00;101607.75;4996157;28;45543;-75
2022/05/18 02:16:57;;;;;;;;;9.67;6.00;;;;;24.02;100.00;101607.03;4995202;28;54664;-74
2022/05/18 02:19:22;;;;;;;;;4.00;4.00;;;;;23.96;100.00;101611.72;4989961;28;63992;-75
2022/05/18 02:21:47;;;;;;;;;6.33;4.00;;;;;23.91;100.00;101622.66;4998322;28;45337;-75
2022/05/18 02:24:13;;;;;;;;;7.33;5.67;;;;;23.83;100.00;101618.44;4996802;28;45320;-74
2022/05/18 02:26:38;;;;;;;;;5.00;5.00;;;;;23.79;100.00;101623.03;4997158;28;57768;-74
2022/05/18 02:29:04;;;;;;;;;5.00;5.00;;;;;23.76;100.00;101628.56;4991239;28;60388;-75
2022/05/18 02:31:30;;;;;;;;;5.00;5.00;;;;;23.71;100.00;101635.91;4997284;28;45373;-74
2022/05/18 02:33:56;;;;;;;;;4.00;4.00;;;;;23.67;100.00;101642.31;4994737;28;45491;-75
2022/05/18 02:36:21;;;;;;;;;4.33;4.33;;;;;23.62;100.00;101633.44;4997305;28;46276;-74
2022/05/18 02:38:47;;;;;;;;;4.00;4.00;;;;;23.55;100.00;101645.34;4995825;28;62532;-74
2022/05/18 02:41:12;;;;;;;;;4.00;4.00;;;;;23.48;100.00;101645.50;4989673;28;45328;-75
2022/05/18 02:43:38;;;;;;;;;3.67;3.00;;;;;23.44;100.00;101641.16;4997550;28;45499;-74
2022/05/18 02:46:07;;;;;;;;;3.00;3.00;;;;;23.42;100.00;101640.31;4996404;28;45304;-75
2022/05/18 02:48:33;;;;;;;;;4.67;2.00;;;;;23.38;100.00;101649.41;4994514;28;46626;-74
2022/05/18 02:50:59;;;;;;;;;4.00;3.00;;;;;23.36;100.00;101647.69;4992499;28;45470;-74
2022/05/18 02:53:24;;;;;;;;;4.00;4.00;;;;;23.33;100.00;101655.84;4994182;28;58809;-75
2022/05/18 02:56:08;;;;;;;;;3.00;3.00;;;;;23.27;100.00;101651.53;4990219;28;45451;-74
2022/05/18 02:58:48;;;;;;;;;5.00;3.00;;;;;23.27;100.00;101654.22;4994849;28;47266;-74
2022/05/18 03:01:41;;;;;;;;;5.67;3.67;;;;;23.23;100.00;101650.75;4993226;28;45598;-75
2022/05/18 03:04:06;;;;;;;;;5.00;4.00;;;;;23.22;100.00;101650.78;4985929;28;45681;-74
2022/05/18 03:06:31;;;;;;;;;4.33;4.00;;;;;23.22;100.00;101661.56;4994078;28;54603;-74
2022/05/18 03:08:57;;;;;;;;;3.00;3.00;;;;;23.20;100.00;101658.03;4993150;28;58875;-74
2022/05/18 03:11:22;;;;;;;;;5.00;3.00;;;;;23.15;100.00;101659.97;4992188;28;62624;-74
2022/05/18 03:13:48;;;;;;;;;4.67;4.67;;;;;23.11;100.00;101656.47;4992425;28;45523;-75
2022/05/18 03:16:13;;;;;;;;;5.00;3.67;;;;;23.08;100.00;101661.97;4996971;28;55803;-73
2022/05/18 03:18:39;;;;;;;;;5.67;3.00;;;;;23.03;100.00;101665.72;4994872;28;47080;-75
2022/05/18 03:23:48;;;;;;;;;1.00;1.00;;;;;22.91;100.00;101666.94;4993219;28;45371;-74
2022/05/18 03:26:17;;;;;;;;;3.00;2.00;;;;;22.83;100.00;101672.47;4993823;28;54238;-74
2022/05/18 03:28:45;;;;;;;;;1.33;1.33;;;;;22.73;100.00;101669.13;4993353;28;47479;-74
2022/05/18 03:31:11;;;;;;;;;2.00;2.00;;;;;22.67;100.00;101676.47;4996109;28;45532;-74
2022/05/18 03:33:37;;;;;;;;;1.67;1.00;;;;;22.60;100.00;101677.56;4997170;28;45338;-74
2022/05/18 03:36:04;;;;;;;;;3.33;2.33;;;;;22.53;100.00;101687.63;4996526;28;45629;-74
2022/05/18 03:38:30;;;;;;;;;1.33;1.33;;;;;22.48;100.00;101690.41;4996335;28;46637;-74
2022/05/18 03:40:55;;;;;;;;;2.00;2.00;;;;;22.44;100.00;101704.00;4989844;28;45263;-74
2022/05/18 03:43:21;;;;;;;;;2.00;2.00;;;;;22.41;100.00;101699.53;4997003;28;45324;-75
2022/05/18 03:45:47;;;;;;;;;3.33;2.00;;;;;22.43;100.00;101699.53;4994177;28;45210;-74
2022/05/18 03:48:13;;;;;;;;;4.00;3.00;;;;;22.41;100.00;101706.75;4995387;28;46880;-75
2022/05/18 03:50:41;;;;;;;;;3.00;2.00;;;;;22.41;100.00;101702.25;4996155;28;45502;-75
2022/05/18 03:53:07;;;;;;;;;2.00;2.00;;;;;22.41;100.00;101713.00;4995572;28;45474;-74
2022/05/18 03:55:33;;;;;;;;;3.00;3.00;;;;;22.41;100.00;101712.13;4991317;28;45521;-74
2022/05/18 03:57:58;;;;;;;;;3.00;3.00;;;;;22.37;100.00;101714.03;4991458;28;46392;-74
2022/05/18 04:00:24;;;;;;;;;5.33;3.00;;;;;22.36;100.00;101714.03;4991906;28;57409;-74
2022/05/18 04:02:49;;;;;;;;;2.00;2.00;;;;;22.33;100.00;101715.00;4994631;28;45467;-74
2022/05/18 04:05:17;;;;;;;;;2.00;2.00;;;;;22.33;100.00;101723.09;4992928;28;58334;-75
2022/05/18 04:07:42;;;;;;;;;3.00;2.00;;;;;22.31;100.00;101724.91;4996446;28;46560;-75
2022/05/18 04:10:08;;;;;;;;;1.33;1.33;;;;;22.30;100.00;101720.44;4990155;28;45423;-75
2022/05/18 04:12:34;;;;;;;;;3.33;2.00;;;;;22.30;100.00;101719.56;4988256;28;45178;-74
2022/05/18 04:15:00;;;;;;;;;2.00;2.00;;;;;22.28;100.00;101726.81;4992873;28;45492;-74
2022/05/18 04:17:25;;;;;;;;;3.00;2.00;;;;;22.25;100.00;101719.66;4992910;28;47192;-74
2022/05/18 04:19:51;;;;;;;;;3.00;1.00;;;;;22.23;100.00;101721.53;4986312;28;46047;-74
2022/05/18 04:22:17;;;;;;;;;1.00;1.00;;;;;22.19;100.00;101726.09;4993387;28;45435;-75
2022/05/18 04:24:42;;;;;;;;;3.67;2.00;;;;;22.17;100.00;101725.25;4986382;28;45293;-74
2022/05/18 04:27:08;;;;;;;;;1.00;1.00;;;;;22.16;100.00;101723.47;4990520;28;46484;-74
2022/05/18 04:29:34;;;;;;;;;1.33;1.33;;;;;22.17;100.00;101733.31;4989358;28;45274;-74
2022/05/18 04:31:59;;;;;;;;;3.00;1.00;;;;;22.15;100.00;101727.06;4984986;28;45538;-74
2022/05/18 04:34:26;;;;;;;;;1.00;1.00;;;;;22.16;100.00;101731.56;4990574;28;45495;-74
2022/05/18 04:36:52;;;;;;;;;1.33;1.33;;;;;22.15;100.00;101728.88;4995824;28;47611;-74
2022/05/18 04:39:17;;;;;;;;;3.00;1.00;;;;;22.14;100.00;101737.88;4988861;28;45511;-75
2022/05/18 04:41:42;;;;;;;;;0.00;0.00;;;;;22.11;100.00;101746.03;4989800;28;46951;-74
2022/05/18 04:44:08;;;;;;;;;1.67;1.67;;;;;22.11;100.00;101757.66;4991392;28;45340;-74
2022/05/18 04:46:34;;;;;;;;;1.00;1.00;;;;;22.11;100.00;101752.28;4987761;28;46353;-75
2022/05/18 04:49:00;;;;;;;;;2.33;1.00;;;;;22.12;100.00;101758.53;4992456;28;45334;-74
2022/05/18 04:51:25;;;;;;;;;4.00;1.00;;;;;22.08;100.00;101759.50;4995152;28;45784;-75
2022/05/18 04:53:50;;;;;;;;;1.00;1.00;;;;;22.08;100.00;101762.19;4990969;28;45302;-75
2022/05/18 04:56:16;;;;;;;;;1.00;1.00;;;;;22.06;100.00;101764.03;4987388;28;62095;-75
2022/05/18 04:58:41;;;;;;;;;2.67;2.00;;;;;22.04;100.00;101758.66;4993771;28;53123;-74
2022/05/18 05:01:08;;;;;;;;;2.00;1.00;;;;;22.05;100.00;101765.84;4986598;28;45418;-74
2022/05/18 05:03:34;;;;;;;;;1.00;1.00;;;;;22.03;100.00;101766.78;4988209;28;45403;-74
2022/05/18 05:06:03;;;;;;;;;2.00;2.00;;;;;22.02;100.00;101762.31;4996846;28;46576;-74
2022/05/18 05:08:29;;;;;;;;;1.67;1.00;;;;;22.01;100.00;101768.63;4991812;28;45399;-73
2022/05/18 05:10:56;;;;;;;;;2.33;1.00;;;;;22.02;100.00;101770.38;4986347;28;45527;-74
2022/05/18 05:13:21;;;;;;;;;1.00;0.00;;;;;21.97;100.00;101775.88;4987014;28;45533;-73
2022/05/18 05:15:46;;;;;;;;;1.00;1.00;;;;;21.92;100.00;101775.06;4992763;28;54585;-74
2022/05/18 05:18:12;;;;;;;;;3.00;1.00;;;;;21.88;100.00;101776.94;4993209;28;50186;-73
2022/05/18 05:20:38;;;;;;;;;2.33;1.67;;;;;21.90;100.00;101780.50;4997461;28;45491;-74
2022/05/18 05:23:03;;;;;;;;;1.00;1.00;;;;;21.88;100.00;101787.69;4995528;28;45598;-74
2022/05/18 05:25:29;;;;;;;;;2.00;2.00;;;;;21.87;100.00;101796.69;4992281;28;45579;-74
2022/05/18 05:27:55;;;;;;;;;1.00;1.00;;;;;21.85;100.00;101797.63;4994312;28;45416;-75
2022/05/18 05:30:20;;;;;;;;;2.00;1.00;;;;;21.84;100.00;101799.44;4997776;28;45558;-74
2022/05/18 05:32:46;;;;;;;;;1.33;1.00;;;;;21.85;100.00;101800.31;4995692;28;45257;-74
2022/05/18 05:35:12;;;;;;;;;1.00;1.00;;;;;21.88;100.00;101800.25;4994794;28;52437;-74
2022/05/18 05:37:38;;;;;;;;;3.00;1.00;;;;;21.90;100.00;101798.44;4997469;28;45615;-74
2022/05/18 05:40:05;;;;;;;;;1.00;1.00;;;;;21.92;100.00;101808.22;4995303;28;46008;-75
2022/05/18 05:42:30;;;;;;;;;2.67;1.67;;;;;21.94;100.00;101809.09;4996659;28;45483;-74
2022/05/18 05:44:56;;;;;;;;;1.00;1.00;;;;;21.95;100.00;101808.19;4995937;28;45991;-74
2022/05/18 05:47:21;;;;;;;;;3.00;2.00;;;;;21.99;100.00;101814.34;4994303;28;60004;-74
2022/05/18 05:49:46;;;;;;;;;1.33;1.33;;;;;22.00;100.00;101818.84;4996028;28;55159;-75
2022/05/18 05:52:12;;;;;;;;;3.33;1.33;;;;;22.00;100.00;101823.31;4996705;28;45619;-73
2022/05/18 05:54:37;;;;;;;;;2.67;2.00;;;;;21.98;100.00;101818.84;4988687;28;59272;-74
2022/05/18 05:57:04;;;;;;;;;1.00;1.00;;;;;21.95;100.00;101818.06;4996395;28;58849;-73
2022/05/18 05:59:31;;;;;;;;;2.00;1.00;;;;;21.93;100.00;101815.38;4996849;28;45400;-73
2022/05/18 06:02:03;;;;;;;;;1.00;1.00;;;;;21.94;100.00;101814.47;4953385;28;1183045;-73
2022/05/18 06:04:30;;;;;;;;;3.00;2.67;;;;;21.97;100.00;101822.47;4997649;28;46458;-72
2022/05/18 06:06:56;;;;;;;;;2.00;2.00;;;;;22.00;100.00;101823.31;4994305;28;45365;-72
2022/05/18 06:09:21;;;;;;;;;2.67;1.67;;;;;22.03;100.00;101824.13;4995680;28;61720;-72
2022/05/18 06:11:46;;;;;;;;;2.33;1.00;;;;;22.05;100.00;101830.41;4998377;28;50025;-73
2022/05/18 06:14:12;;;;;;;;;6.00;2.00;;;;;22.06;100.00;101832.16;4988006;28;47251;-73
2022/05/18 06:16:37;;;;;;;;;1.00;1.00;;;;;22.06;100.00;101832.16;5009132;22;45494;-72
2022/05/18 06:19:02;;;;;;;;;2.67;1.33;;;;;22.08;100.00;101833.00;4996043;28;45608;-73
2022/05/18 06:21:28;;;;;;;;;2.67;1.33;;;;;22.08;100.00;101834.81;4990527;28;53095;-73
2022/05/18 06:23:54;;;;;;;;;2.00;1.00;;;;;22.08;100.00;101833.00;4991334;28;46522;-72
2022/05/18 06:26:19;;;;;;;;;3.67;1.33;;;;;22.12;100.00;101836.56;4989468;28;45637;-73
2022/05/18 06:28:45;;;;;;;;;1.67;1.00;;;;;22.14;100.00;101830.22;4994319;28;45803;-73
2022/05/18 06:31:10;;;;;;;;;1.00;1.00;;;;;22.18;100.00;101836.41;4994393;28;45406;-73
2022/05/18 06:33:36;;;;;;;;;0.67;0.67;;;;;22.20;100.00;101838.16;4996229;28;47770;-73
2022/05/18 06:36:01;;;;;;;;;0.67;0.67;;;;;22.23;100.00;101834.53;4995054;28;45548;-73
2022/05/18 06:38:27;;;;;;;;;2.33;1.00;;;;;22.25;100.00;101840.75;4996384;28;45522;-71
2022/05/18 06:43:40;;;;;;;;;1.00;1.00;;;;;22.25;100.00;101842.56;4998349;28;45466;-74
2022/05/18 06:46:06;;;;;;;;;1.00;1.00;;;;;22.25;100.00;101843.44;5006883;28;45992;-76
2022/05/18 06:48:31;;;;;;;;;3.00;1.00;;;;;22.24;100.00;101841.66;4995418;28;58422;-75
2022/05/18 06:50:56;;;;;;;;;1.33;1.33;;;;;22.25;100.00;101840.75;4992873;28;45494;-76
2022/05/18 06:53:22;;;;;;;;;2.00;1.33;;;;;22.27;100.00;101838.94;4990248;28;47810;-74
2022/05/18 06:55:49;;;;;;;;;4.00;1.00;;;;;22.30;100.00;101830.78;4995542;28;45398;-73
2022/05/18 06:58:15;;;;;;;;;1.00;1.00;;;;;22.31;100.00;101827.16;4993612;28;45615;-74
2022/05/18 07:00:40;;;;;;;;;4.00;3.00;;;;;22.31;100.00;101824.47;4995897;28;45309;-75
2022/05/18 07:03:06;;;;;;;;;1.00;1.00;;;;;22.31;100.00;101831.66;4995324;28;46663;-74
2022/05/18 07:05:31;;;;;;;;;1.00;1.00;;;;;22.31;100.00;101828.97;4995225;28;45337;-74
2022/05/18 07:07:57;;;;;;;;;4.00;1.00;;;;;22.33;100.00;101828.03;4995374;28;45470;-74
2022/05/18 07:10:22;;;;;;;;;1.00;1.00;;;;;22.38;100.00;101828.81;4988561;28;57178;-75
2022/05/18 07:12:48;;;;;;;;;4.00;2.00;;;;;22.41;100.00;101819.78;4995852;28;46655;-74
2022/05/18 07:15:14;;;;;;;;;2.00;1.00;;;;;22.44;100.00;101822.41;4994948;28;45999;-74
2022/05/18 07:17:41;;;;;;;;;1.00;1.00;;;;;22.45;100.00;101822.34;4995445;28;45461;-74
2022/05/18 07:20:07;;;;;;;;;2.33;1.00;;;;;22.49;100.00;101821.38;4988048;28;45343;-73
2022/05/18 07:22:32;;;;;;;;;1.00;1.00;;;;;22.53;100.00;101819.50;4994836;28;47362;-74
2022/05/18 07:24:58;;;;;;;;;1.00;1.00;;;;;22.57;100.00;101833.75;4991010;28;59885;-74
2022/05/18 07:27:23;;;;;;;;;1.00;1.00;;;;;22.59;100.00;101824.75;5008926;28;45685;-73
2022/05/18 07:29:48;;;;;;;;;1.00;1.00;;;;;22.58;100.00;101820.25;4991523;28;55626;-73
2022/05/18 07:32:14;;;;;;;;;1.00;1.00;;;;;22.61;100.00;101819.31;4991762;28;61619;-72
2022/05/18 07:34:41;;;;;;;;;1.00;1.00;;;;;22.66;100.00;101825.50;4991924;28;45451;-75
2022/05/18 07:37:07;;;;;;;;;2.67;1.00;;;;;22.72;100.00;101828.03;4991655;28;45549;-75
2022/05/18 07:39:34;;;;;;;;;5.67;1.00;;;;;22.75;100.00;101827.97;4986926;28;45830;-74
2022/05/18 07:42:00;;;;;;;;;6.00;6.00;;;;;22.79;100.00;101823.38;4985881;28;46468;-74
2022/05/18 07:44:26;;;;;;;;;2.00;1.00;;;;;22.85;100.00;101829.53;4991084;28;45554;-75
2022/05/18 07:46:52;;;;;;;;;3.00;3.00;;;;;22.91;100.00;101826.72;4996010;28;45436;-73
2022/05/18 07:49:18;;;;;;;;;3.33;2.00;;;;;22.97;100.00;101829.25;4992033;28;45760;-73
2022/05/18 07:51:43;;;;;;;;;1.00;1.00;;;;;23.04;100.00;101821.91;4992974;28;47069;-74
2022/05/18 07:54:09;;;;;;;;;3.00;2.00;;;;;23.11;100.00;101828.00;4989222;28;45423;-73
2022/05/18 07:56:34;;;;;;;;;1.33;1.33;;;;;23.18;100.00;101819.75;4994714;28;45431;-74
2022/05/18 07:59:01;;;;;;;;;1.00;1.00;;;;;23.28;100.00;101820.41;4990855;28;45440;-74
2022/05/18 08:01:26;;;;;;;;;1.00;1.00;;;;;23.37;100.00;101820.13;4987391;28;45797;-74
2022/05/18 08:03:52;;;;;;;;;2.00;1.00;;;;;23.48;100.00;101823.44;4994175;28;59443;-74
2022/05/18 08:06:17;;;;;;;;;3.00;2.00;;;;;23.61;100.00;101825.81;4994515;28;45517;-74
2022/05/18 08:08:42;;;;;;;;;2.33;2.00;;;;;23.71;100.00;101825.56;4990220;28;53135;-75
2022/05/18 08:16:36;;;;;;;;;1.00;1.00;;;;;23.91;100.00;101819.56;4995044;28;45896;-75
2022/05/18 08:19:02;;;;;;;;;1.00;1.00;;;;;23.96;100.00;101814.94;4992813;28;51682;-74
2022/05/18 08:21:28;;;;;;;;;1.33;1.33;;;;;24.01;100.00;101814.81;4994265;28;46553;-75
2022/05/18 08:23:53;;;;;;;;;2.00;2.00;;;;;24.08;100.00;101815.53;4992255;28;45470;-74
2022/05/18 08:26:18;;;;;;;;;1.00;1.00;;;;;24.10;100.00;101819.94;4985950;28;45367;-74
2022/05/18 08:28:44;;;;;;;;;1.00;1.00;;;;;24.13;100.00;101818.94;4989361;28;45549;-74
2022/05/18 08:31:09;;;;;;;;;3.67;3.67;;;;;24.14;100.00;101813.53;4995165;28;45498;-76
2022/05/18 08:33:35;;;;;;;;;3.00;1.67;;;;;24.16;100.00;101818.88;4991958;28;53332;-77
2022/05/18 08:36:04;;;;;;;;;2.00;2.00;;;;;24.14;100.00;101812.66;4991339;28;45537;-75
2022/05/18 08:38:29;;;;;;;;;1.67;1.67;;;;;24.15;100.00;101809.00;4995642;28;45426;-75
2022/05/18 08:41:04;;;;;;;;;1.33;1.33;;;;;24.19;100.00;101811.56;4993845;28;47163;-75
2022/05/18 08:43:33;;;;;;;;;6.00;3.00;;;;;24.22;100.00;101808.75;4993698;28;45563;-75
2022/05/18 08:46:13;;;;;;;;;2.00;2.00;;;;;24.25;100.00;101807.81;4990308;28;45447;-75
2022/05/18 08:48:54;;;;;;;;;4.00;2.00;;;;;24.29;100.00;101804.97;4994778;28;45499;-76
2022/05/18 08:51:30;;;;;;;;;4.00;2.67;;;;;24.37;100.00;101809.28;4991840;28;47679;-75
2022/05/18 08:54:09;;;;;;;;;2.33;2.00;;;;;24.43;100.00;101807.25;4998137;28;45551;-75
2022/05/18 08:56:43;;;;;;;;;1.33;1.33;;;;;24.51;100.00;101802.53;4995240;28;45588;-75
2022/05/18 09:01:41;;;;;;;;;3.33;2.00;;;;;24.66;100.00;101803.84;5129513;23;45426;-76
2022/05/18 09:04:20;;;;;;;;;3.00;2.00;;;;;24.72;100.00;101806.34;5031173;28;45590;-76
2022/05/18 09:07:04;;;;;;;;;3.00;2.00;;;;;24.76;100.00;101807.13;5017247;28;45433;-76
2022/05/18 09:12:17;;;;;;;;;1.00;1.00;;;;;24.72;100.00;101800.06;5013567;28;45463;-76
2022/05/18 09:14:44;;;;;;;;;3.00;2.00;;;;;24.67;100.00;101799.34;5017449;28;45516;-76
2022/05/18 09:17:09;;;;;;;;;4.00;3.00;;;;;24.66;100.00;101803.84;5017490;28;45526;-76
2022/05/18 09:20:01;;;;;;;;;2.33;1.67;;;;;24.65;100.00;101803.88;5017862;28;45564;-77
2022/05/18 09:22:45;;;;;;;;;3.33;1.00;;;;;24.70;100.00;101801.91;5015639;28;47500;-77
2022/05/18 09:25:22;;;;;;;;;1.00;1.00;;;;;24.75;100.00;101794.53;5017300;28;45455;-77
2022/05/18 09:27:58;;;;;;;;;2.00;1.67;;;;;24.79;100.00;101790.81;5018244;28;45438;-77
2022/05/18 09:31:01;;;;;;;;;3.00;3.00;;;;;24.85;100.00;101798.72;5018249;28;45638;-77
2022/05/18 09:33:29;;;;;;;;;4.00;2.33;;;;;24.88;100.00;101785.13;5017803;28;47528;-76
2022/05/18 09:36:31;;;;;;;;;4.67;3.00;;;;;24.91;100.00;101784.13;5016150;28;45298;-76
2022/05/18 09:39:10;;;;;;;;;5.33;2.33;;;;;24.95;100.00;101789.38;5014313;28;45454;-76
2022/05/18 09:41:47;;;;;;;;;5.00;2.67;;;;;25.00;100.00;101778.41;5015144;28;45466;-75
2022/05/18 09:44:24;;;;;;;;;5.00;3.00;;;;;25.01;100.00;101780.19;5015863;28;47203;-76
2022/05/18 09:46:50;;;;;;;;;3.00;3.00;;;;;25.04;100.00;101780.97;5032133;28;45430;-80
2022/05/18 09:49:25;;;;;;;;;9.33;4.33;;;;;25.12;100.00;101778.03;5016198;28;45490;-78
2022/05/18 09:51:51;;;;;;;;;2.67;2.67;;;;;25.20;100.00;101769.66;5017197;28;45544;-76
2022/05/18 09:54:17;;;;;;;;;4.67;3.00;;;;;25.26;100.00;101769.44;5017132;28;62208;-76
2022/05/18 09:57:21;;;;;;;;;3.67;3.67;;;;;25.33;100.00;101769.16;5017931;28;45455;-76
2022/05/18 09:59:59;;;;;;;;;2.67;2.67;;;;;25.40;100.00;101767.09;5010436;28;45517;-76
2022/05/18 10:07:59;;;;;;;;;2.67;2.67;;;;;25.63;100.00;101750.06;5013724;28;45447;-77
2022/05/18 10:10:33;;;;;;;;;3.33;2.00;;;;;25.71;100.00;101753.34;5017031;28;51708;-75
2022/05/18 10:13:05;;;;;;;;;3.00;3.00;;;;;25.79;100.00;101751.28;5012041;28;45657;-76
2022/05/18 10:15:41;;;;;;;;;4.67;4.67;;;;;25.85;100.00;101750.16;5007034;28;47484;-75
2022/05/18 10:18:36;;;;;;;;;5.33;5.33;;;;;25.90;100.00;101748.16;5012216;28;45384;-76
2022/05/18 10:21:20;;;;;;;;;6.00;3.67;;;;;25.95;100.00;101742.59;5009200;28;45410;-75
2022/05/18 10:23:52;;;;;;;;;5.00;3.33;;;;;25.98;100.00;101748.75;5015463;28;45581;-75
2022/05/18 10:26:30;;;;;;;;;3.00;3.00;;;;;26.07;100.00;101740.28;5013805;28;46605;-75
2022/05/18 10:29:06;;;;;;;;;3.33;3.33;;;;;26.10;100.00;101734.75;5011620;28;45267;-76
2022/05/18 10:31:41;;;;;;;;;2.00;2.00;;;;;26.16;100.00;101724.63;5008473;28;45665;-75
2022/05/18 10:34:25;;;;;;;;;4.00;3.67;;;;;26.23;100.00;101737.84;5013877;28;45521;-75
2022/05/18 10:36:56;;;;;;;;;3.00;1.67;;;;;26.30;100.00;101733.06;5013868;28;46181;-75
2022/05/18 10:39:29;;;;;;;;;3.33;3.33;;;;;26.37;100.00;101716.50;5013509;28;45489;-75
2022/05/18 10:41:55;;;;;;;;;2.67;2.67;;;;;26.45;100.00;101715.34;5020950;28;45653;-75
2022/05/18 10:44:22;;;;;;;;;2.67;2.67;;;;;26.53;100.00;101711.38;5015819;28;45327;-75
2022/05/18 10:46:50;;;;;;;;;2.00;2.00;;;;;26.58;100.00;101709.38;5012732;28;46866;-75
2022/05/18 10:49:35;;;;;;;;;4.00;4.00;;;;;26.63;100.00;101707.34;5013442;28;45590;-75
2022/05/18 10:52:20;;;;;;;;;3.00;3.00;;;;;26.66;100.00;101700.91;5015883;28;45494;-75
2022/05/18 10:55:02;;;;;;;;;4.00;3.00;;;;;26.66;100.00;101705.44;5016217;28;45347;-75
2022/05/18 10:57:39;;;;;;;;;7.00;3.00;;;;;26.69;100.00;101699.91;5017291;28;47209;-75
2022/05/18 11:00:10;;;;;;;;;3.33;2.00;;;;;26.72;100.00;101697.94;5011725;28;45553;-75
2022/05/18 11:03:04;;;;;;;;;4.33;3.00;;;;;26.79;100.00;101699.44;5014830;28;45573;-75
2022/05/18 11:05:41;;;;;;;;;3.00;3.00;;;;;26.83;100.00;101695.63;5014897;28;45513;-75
2022/05/18 11:08:14;;;;;;;;;7.00;4.00;;;;;26.86;100.00;101691.94;5014594;28;46516;-75
2022/05/18 11:10:58;;;;;;;;;3.00;3.00;;;;;26.88;100.00;101699.03;5013460;28;46695;-75
2022/05/18 11:13:38;;;;;;;;;4.33;3.00;;;;;26.93;100.00;101693.41;5016068;28;45373;-75
2022/05/18 11:16:22;;;;;;;;;2.33;2.33;;;;;26.97;100.00;101689.63;5012814;28;45425;-75
2022/05/18 11:19:02;;;;;;;;;2.33;2.33;;;;;27.01;100.00;101693.97;5015073;28;46917;-75
2022/05/18 11:21:53;;;;;;;;;5.67;3.00;;;;;27.09;100.00;101699.94;5015499;28;45359;-74
2022/05/18 11:24:30;;;;;;;;;7.00;4.33;;;;;27.17;100.00;101696.91;4997138;28;45461;-75
2022/05/18 11:27:26;;;;;;;;;4.67;2.33;;;;;27.28;100.00;101693.72;5015936;28;45155;-75
2022/05/18 11:30:07;;;;;;;;;5.00;3.00;;;;;27.37;100.00;101696.88;5013529;28;46738;-78
2022/05/18 11:32:32;;;;;;;;;3.00;3.00;;;;;27.43;100.00;101690.28;5014462;28;45491;-75
2022/05/18 11:35:24;;;;;;;;;4.67;3.00;;;;;27.50;100.00;101688.19;5014852;28;45470;-76
2022/05/18 11:37:56;;;;;;;;;4.00;3.00;;;;;27.62;100.00;101683.06;5011726;28;45519;-76
2022/05/18 11:40:50;;;;;;;;;4.00;2.33;;;;;27.76;100.00;101682.47;5015909;28;47592;-76
2022/05/18 11:43:53;;;;;;;;;2.00;2.00;;;;;27.90;100.00;101673.66;5012591;28;45436;-76
2022/05/18 11:46:45;;;;;;;;;4.00;4.00;;;;;28.09;100.00;101676.38;5009366;28;45606;-75
2022/05/18 11:49:14;;;;;;;;;44.00;36.25;;;;;28.22;100.00;101665.78;5011974;28;45456;-75